sensor_id;sensor_type;location;lat;lon;timestamp;pressure;altitude;pressure_sealevel;temperature;humidity
77517;BME280;66628;53.946;27.634;2023-02-16T00:00:19;99810.281250;;;19.219999;27.866211
77517;BME280;66628;53.946;27.634;2023-02-16T00:01:16;99813.265625;;;19.219999;27.899414
77517;BME280;66628;53.946;27.634;2023-02-16T00:02:15;99812.156250;;;19.200001;27.832031
77517;BME280;66628;53.946;27.634;2023-02-16T00:03:16;99815.343750;;;19.180000;27.919922
77517;BME280;66628;53.946;27.634;2023-02-16T00:04:19;99816.929688;;;19.170000;27.840820
77517;BME280;66628;53.946;27.634;2023-02-16T00:06:15;99816.281250;;;19.160000;27.784180
77517;BME280;66628;53.946;27.634;2023-02-16T00:07:15;99815.875000;;;19.160000;27.761719
77517;BME280;66628;53.946;27.634;2023-02-16T00:08:15;99815.640625;;;19.139999;27.738281
77517;BME280;66628;53.946;27.634;2023-02-16T00:09:15;99815.820312;;;19.129999;27.882812
77517;BME280;66628;53.946;27.634;2023-02-16T00:10:17;99816.468750;;;19.139999;28.119141
77517;BME280;66628;53.946;27.634;2023-02-16T00:12:15;99818.078125;;;19.139999;27.927734
77517;BME280;66628;53.946;27.634;2023-02-16T00:13:25;99815.234375;;;19.129999;27.950195
77517;BME280;66628;53.946;27.634;2023-02-16T00:14:15;99814.812500;;;19.139999;27.905273
77517;BME280;66628;53.946;27.634;2023-02-16T00:15:17;99814.023438;;;19.139999;27.861328
77517;BME280;66628;53.946;27.634;2023-02-16T00:16:18;99808.125000;;;19.110001;27.769531
77517;BME280;66628;53.946;27.634;2023-02-16T00:17:15;99808.890625;;;19.080000;27.779297
77517;BME280;66628;53.946;27.634;2023-02-16T00:18:18;99803.179688;;;19.090000;27.969727
77517;BME280;66628;53.946;27.634;2023-02-16T00:19:19;99802.125000;;;19.100000;27.948242
77517;BME280;66628;53.946;27.634;2023-02-16T00:20:15;99800.562500;;;19.090000;27.958984
77517;BME280;66628;53.946;27.634;2023-02-16T00:21:15;99801.078125;;;19.070000;27.857422
77517;BME280;66628;53.946;27.634;2023-02-16T00:22:14;99797.937500;;;19.070000;27.857422
77517;BME280;66628;53.946;27.634;2023-02-16T00:23:15;99800.796875;;;19.059999;27.833984
77517;BME280;66628;53.946;27.634;2023-02-16T00:24:14;99800.570312;;;19.059999;27.811523
77517;BME280;66628;53.946;27.634;2023-02-16T00:25:15;99796.132812;;;19.070000;27.868164
77517;BME280;66628;53.946;27.634;2023-02-16T00:26:19;99797.890625;;;19.080000;27.947266
77517;BME280;66628;53.946;27.634;2023-02-16T00:27:15;99798.648438;;;19.080000;27.869141
77517;BME280;66628;53.946;27.634;2023-02-16T00:28:16;99796.023438;;;19.070000;27.833984
77517;BME280;66628;53.946;27.634;2023-02-16T00:30:15;99796.828125;;;18.980000;27.806641
77517;BME280;66628;53.946;27.634;2023-02-16T00:31:16;99794.250000;;;18.969999;27.883789
77517;BME280;66628;53.946;27.634;2023-02-16T00:32:15;99788.023438;;;18.990000;27.941406
77517;BME280;66628;53.946;27.634;2023-02-16T00:33:16;99787.046875;;;19.000000;27.987305
77517;BME280;66628;53.946;27.634;2023-02-16T00:34:21;99789.031250;;;19.000000;28.176758
77517;BME280;66628;53.946;27.634;2023-02-16T00:35:18;99787.976562;;;19.030001;27.955078
77517;BME280;66628;53.946;27.634;2023-02-16T00:36:14;99787.406250;;;19.000000;27.774414
77517;BME280;66628;53.946;27.634;2023-02-16T00:37:14;99788.046875;;;18.950001;27.714844
77517;BME280;66628;53.946;27.634;2023-02-16T00:38:14;99785.000000;;;18.940001;27.792969
77517;BME280;66628;53.946;27.634;2023-02-16T00:39:14;99786.968750;;;18.900000;27.868164
77517;BME280;66628;53.946;27.634;2023-02-16T00:40:15;99785.625000;;;18.870001;27.844727
77517;BME280;66628;53.946;27.634;2023-02-16T00:41:16;99785.789062;;;18.840000;27.898438
77517;BME280;66628;53.946;27.634;2023-02-16T00:42:18;99786.531250;;;18.770000;27.793945
77517;BME280;66628;53.946;27.634;2023-02-16T00:43:28;99782.250000;;;18.780001;27.905273
77517;BME280;66628;53.946;27.634;2023-02-16T00:44:15;99778.468750;;;18.799999;28.041016
77517;BME280;66628;53.946;27.634;2023-02-16T00:45:16;99780.312500;;;18.740000;27.892578
77517;BME280;66628;53.946;27.634;2023-02-16T00:46:15;99778.093750;;;18.700001;27.867188
77517;BME280;66628;53.946;27.634;2023-02-16T00:48:14;99775.484375;;;18.760000;27.971680
77517;BME280;66628;53.946;27.634;2023-02-16T00:49:15;99775.890625;;;18.770000;27.904297
77517;BME280;66628;53.946;27.634;2023-02-16T00:50:16;99775.031250;;;18.730000;27.869141
77517;BME280;66628;53.946;27.634;2023-02-16T00:51:14;99772.984375;;;18.719999;27.946289
77517;BME280;66628;53.946;27.634;2023-02-16T00:52:30;99774.484375;;;18.719999;27.924805
77517;BME280;66628;53.946;27.634;2023-02-16T00:53:14;99773.101562;;;18.719999;27.957031
77517;BME280;66628;53.946;27.634;2023-02-16T00:54:14;99775.968750;;;18.750000;28.093750
77517;BME280;66628;53.946;27.634;2023-02-16T00:55:16;99771.851562;;;18.690001;27.966797
77517;BME280;66628;53.946;27.634;2023-02-16T00:56:16;99769.828125;;;18.680000;27.966797
77517;BME280;66628;53.946;27.634;2023-02-16T00:57:15;99770.359375;;;18.670000;28.010742
77517;BME280;66628;53.946;27.634;2023-02-16T00:58:19;99766.109375;;;18.680000;28.056641
77517;BME280;66628;53.946;27.634;2023-02-16T00:59:15;99765.468750;;;18.700001;28.168945
77517;BME280;66628;53.946;27.634;2023-02-16T01:00:20;99762.843750;;;18.680000;28.157227
77517;BME280;66628;53.946;27.634;2023-02-16T01:01:15;99758.015625;;;18.700001;28.203125
77517;BME280;66628;53.946;27.634;2023-02-16T01:02:14;99760.640625;;;18.700001;28.045898
77517;BME280;66628;53.946;27.634;2023-02-16T01:03:15;99757.968750;;;18.700001;28.057617
77517;BME280;66628;53.946;27.634;2023-02-16T01:04:19;99755.812500;;;18.660000;28.065430
77517;BME280;66628;53.946;27.634;2023-02-16T01:05:15;99756.453125;;;18.650000;28.020508
77517;BME280;66628;53.946;27.634;2023-02-16T01:06:14;99761.687500;;;18.650000;28.031250
77517;BME280;66628;53.946;27.634;2023-02-16T01:07:15;99760.531250;;;18.750000;28.853516
77517;BME280;66628;53.946;27.634;2023-02-16T01:08:15;99757.593750;;;18.940001;28.653320
77517;BME280;66628;53.946;27.634;2023-02-16T01:09:15;99756.851562;;;19.090000;28.718750
77517;BME280;66628;53.946;27.634;2023-02-16T01:10:16;99754.062500;;;19.219999;28.593750
77517;BME280;66628;53.946;27.634;2023-02-16T01:11:15;99752.296875;;;19.340000;28.544922
77517;BME280;66628;53.946;27.634;2023-02-16T01:12:15;99753.023438;;;19.420000;28.315430
77517;BME280;66628;53.946;27.634;2023-02-16T01:13:15;99755.054688;;;19.500000;28.198242
77517;BME280;66628;53.946;27.634;2023-02-16T01:14:14;99750.031250;;;19.610001;28.271484
77517;BME280;66628;53.946;27.634;2023-02-16T01:15:15;99746.921875;;;19.719999;28.221680
77517;BME280;66628;53.946;27.634;2023-02-16T01:16:19;99746.859375;;;19.799999;28.182617
77517;BME280;66628;53.946;27.634;2023-02-16T01:17:15;99747.070312;;;19.860001;28.097656
77517;BME280;66628;53.946;27.634;2023-02-16T01:18:15;99740.562500;;;19.920000;28.067383
77517;BME280;66628;53.946;27.634;2023-02-16T01:19:17;99743.484375;;;19.969999;28.014648
77517;BME280;66628;53.946;27.634;2023-02-16T01:20:15;99736.796875;;;20.010000;28.005859
77517;BME280;66628;53.946;27.634;2023-02-16T01:21:14;99735.218750;;;20.040001;28.041016
77517;BME280;66628;53.946;27.634;2023-02-16T01:22:14;99734.000000;;;20.080000;28.021484
77517;BME280;66628;53.946;27.634;2023-02-16T01:23:14;99731.640625;;;20.110001;28.101562
77517;BME280;66628;53.946;27.634;2023-02-16T01:24:14;99729.710938;;;20.150000;28.047852
77517;BME280;66628;53.946;27.634;2023-02-16T01:25:15;99725.546875;;;20.170000;28.049805
77517;BME280;66628;53.946;27.634;2023-02-16T01:26:15;99722.968750;;;20.200001;27.984375
77517;BME280;66628;53.946;27.634;2023-02-16T01:27:14;99722.359375;;;20.230000;28.041992
77517;BME280;66628;53.946;27.634;2023-02-16T01:28:18;99720.656250;;;20.250000;28.032227
77517;BME280;66628;53.946;27.634;2023-02-16T01:29:16;99718.718750;;;20.280001;28.022461
77517;BME280;66628;53.946;27.634;2023-02-16T01:30:15;99718.125000;;;20.299999;27.990234
77517;BME280;66628;53.946;27.634;2023-02-16T01:31:15;99717.406250;;;20.320000;28.013672
77517;BME280;66628;53.946;27.634;2023-02-16T01:32:14;99714.375000;;;20.340000;28.059570
77517;BME280;66628;53.946;27.634;2023-02-16T01:33:14;99714.000000;;;20.360001;27.971680
77517;BME280;66628;53.946;27.634;2023-02-16T01:34:14;99714.460938;;;20.389999;27.951172
77517;BME280;66628;53.946;27.634;2023-02-16T01:35:14;99714.625000;;;20.400000;27.962891
77517;BME280;66628;53.946;27.634;2023-02-16T01:36:33;99711.703125;;;20.430000;27.964844
77517;BME280;66628;53.946;27.634;2023-02-16T01:37:15;99707.375000;;;20.450001;27.943359
77517;BME280;66628;53.946;27.634;2023-02-16T01:38:18;99707.703125;;;20.459999;28.022461
77517;BME280;66628;53.946;27.634;2023-02-16T01:39:16;99705.257812;;;20.469999;28.011719
77517;BME280;66628;53.946;27.634;2023-02-16T01:40:19;99704.257812;;;20.490000;27.957031
77517;BME280;66628;53.946;27.634;2023-02-16T01:42:33;99704.062500;;;20.520000;27.993164
77517;BME280;66628;53.946;27.634;2023-02-16T01:45:16;99704.609375;;;20.559999;27.951172
77517;BME280;66628;53.946;27.634;2023-02-16T01:46:19;99700.976562;;;20.570000;27.917969
77517;BME280;66628;53.946;27.634;2023-02-16T01:47:18;99701.515625;;;20.580000;27.962891
77517;BME280;66628;53.946;27.634;2023-02-16T01:48:21;99701.734375;;;20.600000;27.975586
77517;BME280;66628;53.946;27.634;2023-02-16T01:49:16;99698.851562;;;20.610001;28.078125
77517;BME280;66628;53.946;27.634;2023-02-16T01:50:19;99696.054688;;;20.620001;27.988281
77517;BME280;66628;53.946;27.634;2023-02-16T01:51:19;99698.070312;;;20.639999;27.966797
77517;BME280;66628;53.946;27.634;2023-02-16T01:52:21;99691.023438;;;20.639999;27.933594
77517;BME280;66628;53.946;27.634;2023-02-16T01:53:17;99691.117188;;;20.660000;27.934570
77517;BME280;66628;53.946;27.634;2023-02-16T01:54:21;99689.429688;;;20.670000;27.878906
77517;BME280;66628;53.946;27.634;2023-02-16T01:56:18;99688.773438;;;20.690001;27.891602
77517;BME280;66628;53.946;27.634;2023-02-16T02:04:24;99678.843750;;;20.780001;28.053711
77517;BME280;66628;53.946;27.634;2023-02-16T02:06:19;99676.203125;;;20.790001;28.042969
77517;BME280;66628;53.946;27.634;2023-02-16T02:07:20;99674.453125;;;20.799999;28.055664
77517;BME280;66628;53.946;27.634;2023-02-16T02:09:33;99664.640625;;;20.820000;28.034180
77517;BME280;66628;53.946;27.634;2023-02-16T02:11:17;99667.281250;;;20.850000;27.980469
77517;BME280;66628;53.946;27.634;2023-02-16T02:13:21;99663.664062;;;20.860001;27.890625
77517;BME280;66628;53.946;27.634;2023-02-16T02:14:16;99660.492188;;;20.870001;27.879883
77517;BME280;66628;53.946;27.634;2023-02-16T02:15:16;99660.023438;;;20.870001;27.745117
77517;BME280;66628;53.946;27.634;2023-02-16T02:17:16;99656.109375;;;20.889999;27.937500
77517;BME280;66628;53.946;27.634;2023-02-16T02:18:14;99655.687500;;;20.889999;28.083984
77517;BME280;66628;53.946;27.634;2023-02-16T02:19:14;99655.398438;;;20.910000;27.950195
77517;BME280;66628;53.946;27.634;2023-02-16T02:20:20;99651.070312;;;20.910000;27.905273
77517;BME280;66628;53.946;27.634;2023-02-16T02:23:20;99654.484375;;;20.950001;28.087891
77517;BME280;66628;53.946;27.634;2023-02-16T02:30:24;99644.335938;;;20.980000;28.202148
77517;BME280;66628;53.946;27.634;2023-02-16T02:31:22;99642.484375;;;20.990000;28.101562
77517;BME280;66628;53.946;27.634;2023-02-16T02:32:17;99643.484375;;;20.990000;28.157227
77517;BME280;66628;53.946;27.634;2023-02-16T02:33:18;99644.234375;;;20.990000;28.124023
77517;BME280;66628;53.946;27.634;2023-02-16T02:35:25;99640.890625;;;21.000000;27.944336
77517;BME280;66628;53.946;27.634;2023-02-16T02:38:36;99637.625000;;;21.010000;28.068359
77517;BME280;66628;53.946;27.634;2023-02-16T02:39:20;99641.687500;;;21.020000;28.238281
77517;BME280;66628;53.946;27.634;2023-02-16T02:42:18;99639.726562;;;21.030001;28.284180
77517;BME280;66628;53.946;27.634;2023-02-16T02:43:18;99639.953125;;;21.040001;28.306641
77517;BME280;66628;53.946;27.634;2023-02-16T02:44:15;99639.414062;;;21.040001;28.418945
77517;BME280;66628;53.946;27.634;2023-02-16T02:45:17;99640.750000;;;21.049999;28.441406
77517;BME280;66628;53.946;27.634;2023-02-16T02:47:14;99639.226562;;;21.059999;28.375977
77517;BME280;66628;53.946;27.634;2023-02-16T02:48:14;99641.859375;;;21.059999;28.364258
77517;BME280;66628;53.946;27.634;2023-02-16T02:49:14;99634.781250;;;21.070000;28.398438
77517;BME280;66628;53.946;27.634;2023-02-16T02:51:14;99630.343750;;;21.059999;28.296875
77517;BME280;66628;53.946;27.634;2023-02-16T02:52:14;99629.000000;;;21.070000;28.196289
77517;BME280;66628;53.946;27.634;2023-02-16T02:53:14;99631.281250;;;21.080000;28.398438
77517;BME280;66628;53.946;27.634;2023-02-16T02:54:16;99631.046875;;;21.070000;28.375977
77517;BME280;66628;53.946;27.634;2023-02-16T02:55:14;99631.210938;;;21.080000;28.489258
77517;BME280;66628;53.946;27.634;2023-02-16T02:56:15;99628.531250;;;21.080000;28.286133
77517;BME280;66628;53.946;27.634;2023-02-16T02:57:18;99630.039062;;;21.080000;28.410156
77517;BME280;66628;53.946;27.634;2023-02-16T02:58:14;99629.093750;;;21.090000;28.376953
77517;BME280;66628;53.946;27.634;2023-02-16T02:59:14;99628.875000;;;21.100000;28.354492
77517;BME280;66628;53.946;27.634;2023-02-16T03:00:19;99627.117188;;;21.100000;28.399414
77517;BME280;66628;53.946;27.634;2023-02-16T03:01:14;99627.437500;;;21.110001;28.389648
77517;BME280;66628;53.946;27.634;2023-02-16T03:02:14;99628.828125;;;21.110001;28.367188
77517;BME280;66628;53.946;27.634;2023-02-16T03:04:15;99627.492188;;;21.120001;28.446289
77517;BME280;66628;53.946;27.634;2023-02-16T03:05:14;99625.562500;;;21.120001;28.378906
77517;BME280;66628;53.946;27.634;2023-02-16T03:06:19;99624.843750;;;21.129999;28.390625
77517;BME280;66628;53.946;27.634;2023-02-16T03:07:14;99620.937500;;;21.129999;28.402344
77517;BME280;66628;53.946;27.634;2023-02-16T03:08:15;99619.765625;;;21.129999;28.502930
77517;BME280;66628;53.946;27.634;2023-02-16T03:09:14;99621.218750;;;21.129999;28.458984
77517;BME280;66628;53.946;27.634;2023-02-16T03:10:18;99619.718750;;;21.139999;28.458984
77517;BME280;66628;53.946;27.634;2023-02-16T03:11:16;99620.171875;;;21.139999;28.425781
77517;BME280;66628;53.946;27.634;2023-02-16T03:12:14;99614.390625;;;21.139999;28.458984
77517;BME280;66628;53.946;27.634;2023-02-16T03:13:16;99612.109375;;;21.139999;28.448242
77517;BME280;66628;53.946;27.634;2023-02-16T03:15:15;99608.718750;;;21.150000;28.403320
77517;BME280;66628;53.946;27.634;2023-02-16T03:17:15;99610.875000;;;21.150000;28.459961
77517;BME280;66628;53.946;27.634;2023-02-16T03:18:14;99608.945312;;;21.150000;28.403320
77517;BME280;66628;53.946;27.634;2023-02-16T03:19:15;99613.031250;;;21.170000;28.348633
77517;BME280;66628;53.946;27.634;2023-02-16T03:20:14;99608.703125;;;21.170000;28.438477
77517;BME280;66628;53.946;27.634;2023-02-16T03:21:14;99607.703125;;;21.170000;28.416016
77517;BME280;66628;53.946;27.634;2023-02-16T03:22:14;99611.390625;;;21.180000;28.394531
77517;BME280;66628;53.946;27.634;2023-02-16T03:23:14;99608.335938;;;21.180000;28.315430
77517;BME280;66628;53.946;27.634;2023-02-16T03:24:16;99609.734375;;;21.180000;28.382812
77517;BME280;66628;53.946;27.634;2023-02-16T03:25:14;99603.921875;;;21.170000;28.381836
77517;BME280;66628;53.946;27.634;2023-02-16T03:26:14;99603.171875;;;21.160000;28.381836
77517;BME280;66628;53.946;27.634;2023-02-16T03:27:15;99599.195312;;;21.170000;28.438477
77517;BME280;66628;53.946;27.634;2023-02-16T03:28:14;99599.765625;;;21.160000;28.449219
77517;BME280;66628;53.946;27.634;2023-02-16T03:29:14;99596.320312;;;21.170000;28.471680
77517;BME280;66628;53.946;27.634;2023-02-16T03:30:14;99594.171875;;;21.170000;28.426758
77517;BME280;66628;53.946;27.634;2023-02-16T03:31:19;99596.609375;;;21.190001;28.451172
77517;BME280;66628;53.946;27.634;2023-02-16T03:32:14;99595.906250;;;21.190001;28.506836
77517;BME280;66628;53.946;27.634;2023-02-16T03:33:14;99593.851562;;;21.190001;28.541016
77517;BME280;66628;53.946;27.634;2023-02-16T03:34:15;99594.132812;;;21.190001;28.461914
77517;BME280;66628;53.946;27.634;2023-02-16T03:35:14;99593.484375;;;21.200001;28.518555
77517;BME280;66628;53.946;27.634;2023-02-16T03:36:14;99593.953125;;;21.190001;28.496094
77517;BME280;66628;53.946;27.634;2023-02-16T03:37:16;99593.593750;;;21.200001;28.474609
77517;BME280;66628;53.946;27.634;2023-02-16T03:38:14;99591.609375;;;21.200001;28.530273
77517;BME280;66628;53.946;27.634;2023-02-16T03:39:14;99593.421875;;;21.200001;28.462891
77517;BME280;66628;53.946;27.634;2023-02-16T03:40:15;99595.062500;;;21.200001;28.541016
77517;BME280;66628;53.946;27.634;2023-02-16T03:41:14;99590.437500;;;21.200001;28.485352
77517;BME280;66628;53.946;27.634;2023-02-16T03:42:14;99589.757812;;;21.200001;28.373047
77517;BME280;66628;53.946;27.634;2023-02-16T03:43:14;99589.218750;;;21.209999;28.452148
77517;BME280;66628;53.946;27.634;2023-02-16T03:44:14;99589.492188;;;21.219999;28.452148
77517;BME280;66628;53.946;27.634;2023-02-16T03:45:14;99588.375000;;;21.219999;28.419922
77517;BME280;66628;53.946;27.634;2023-02-16T03:46:14;99583.140625;;;21.219999;28.520508
77517;BME280;66628;53.946;27.634;2023-02-16T03:47:14;99580.617188;;;21.230000;28.543945
77517;BME280;66628;53.946;27.634;2023-02-16T03:48:14;99579.859375;;;21.230000;28.509766
77517;BME280;66628;53.946;27.634;2023-02-16T03:49:15;99577.390625;;;21.230000;28.543945
77517;BME280;66628;53.946;27.634;2023-02-16T03:50:15;99575.687500;;;21.240000;28.521484
77517;BME280;66628;53.946;27.634;2023-02-16T03:51:14;99574.640625;;;21.240000;28.554688
77517;BME280;66628;53.946;27.634;2023-02-16T03:52:14;99571.421875;;;21.240000;28.611328
77517;BME280;66628;53.946;27.634;2023-02-16T03:53:14;99570.093750;;;21.250000;28.488281
77517;BME280;66628;53.946;27.634;2023-02-16T03:54:14;99572.539062;;;21.250000;28.465820
77517;BME280;66628;53.946;27.634;2023-02-16T03:55:14;99571.703125;;;21.260000;28.556641
77517;BME280;66628;53.946;27.634;2023-02-16T03:56:14;99571.046875;;;21.260000;28.568359
77517;BME280;66628;53.946;27.634;2023-02-16T03:57:14;99566.898438;;;21.260000;28.500000
77517;BME280;66628;53.946;27.634;2023-02-16T03:58:17;99566.203125;;;21.260000;28.522461
77517;BME280;66628;53.946;27.634;2023-02-16T03:59:14;99565.625000;;;21.270000;28.580078
77517;BME280;66628;53.946;27.634;2023-02-16T04:00:14;99561.570312;;;21.270000;28.680664
77517;BME280;66628;53.946;27.634;2023-02-16T04:01:15;99561.421875;;;21.270000;28.613281
77517;BME280;66628;53.946;27.634;2023-02-16T04:02:14;99567.000000;;;21.280001;28.726562
77517;BME280;66628;53.946;27.634;2023-02-16T04:03:14;99567.742188;;;21.290001;28.704102
77517;BME280;66628;53.946;27.634;2023-02-16T04:04:14;99562.679688;;;21.280001;28.704102
77517;BME280;66628;53.946;27.634;2023-02-16T04:05:14;99564.960938;;;21.290001;28.738281
77517;BME280;66628;53.946;27.634;2023-02-16T04:06:14;99564.265625;;;21.290001;28.760742
77517;BME280;66628;53.946;27.634;2023-02-16T04:07:14;99559.632812;;;21.290001;28.682617
77517;BME280;66628;53.946;27.634;2023-02-16T04:08:14;99557.234375;;;21.290001;28.849609
77517;BME280;66628;53.946;27.634;2023-02-16T04:09:14;99555.023438;;;21.290001;28.839844
77517;BME280;66628;53.946;27.634;2023-02-16T04:10:14;99549.875000;;;21.299999;28.817383
77517;BME280;66628;53.946;27.634;2023-02-16T04:11:14;99549.171875;;;21.299999;28.884766
77517;BME280;66628;53.946;27.634;2023-02-16T04:12:14;99548.804688;;;21.299999;28.908203
77517;BME280;66628;53.946;27.634;2023-02-16T04:13:14;99548.578125;;;21.299999;28.953125
77517;BME280;66628;53.946;27.634;2023-02-16T04:14:14;99545.296875;;;21.299999;28.941406
77517;BME280;66628;53.946;27.634;2023-02-16T04:15:15;99542.421875;;;21.309999;28.874023
77517;BME280;66628;53.946;27.634;2023-02-16T04:16:14;99542.328125;;;21.309999;28.930664
77517;BME280;66628;53.946;27.634;2023-02-16T04:17:14;99539.625000;;;21.309999;28.806641
77517;BME280;66628;53.946;27.634;2023-02-16T04:18:14;99541.968750;;;21.309999;28.773438
77517;BME280;66628;53.946;27.634;2023-02-16T04:19:14;99539.695312;;;21.309999;28.840820
77517;BME280;66628;53.946;27.634;2023-02-16T04:20:18;99538.695312;;;21.320000;28.762695
77517;BME280;66628;53.946;27.634;2023-02-16T04:21:14;99537.125000;;;21.320000;28.885742
77517;BME280;66628;53.946;27.634;2023-02-16T04:22:14;99540.250000;;;21.320000;28.853516
77517;BME280;66628;53.946;27.634;2023-02-16T04:23:14;99537.242188;;;21.309999;28.840820
77517;BME280;66628;53.946;27.634;2023-02-16T04:24:14;99537.093750;;;21.320000;28.886719
77517;BME280;66628;53.946;27.634;2023-02-16T04:25:14;99537.046875;;;21.320000;28.931641
77517;BME280;66628;53.946;27.634;2023-02-16T04:26:14;99536.171875;;;21.320000;28.875977
77517;BME280;66628;53.946;27.634;2023-02-16T04:27:16;99531.593750;;;21.330000;28.886719
77517;BME280;66628;53.946;27.634;2023-02-16T04:28:14;99529.914062;;;21.320000;28.841797
77517;BME280;66628;53.946;27.634;2023-02-16T04:29:14;99530.218750;;;21.330000;28.751953
77517;BME280;66628;53.946;27.634;2023-02-16T04:30:15;99532.070312;;;21.340000;28.887695
77517;BME280;66628;53.946;27.634;2023-02-16T04:31:14;99532.898438;;;21.330000;28.875977
77517;BME280;66628;53.946;27.634;2023-02-16T04:32:14;99526.890625;;;21.330000;28.875977
77517;BME280;66628;53.946;27.634;2023-02-16T04:33:17;99528.046875;;;21.340000;28.842773
77517;BME280;66628;53.946;27.634;2023-02-16T04:34:14;99525.062500;;;21.340000;29.067383
77517;BME280;66628;53.946;27.634;2023-02-16T04:35:14;99524.820312;;;21.340000;29.011719
77517;BME280;66628;53.946;27.634;2023-02-16T04:36:14;99524.421875;;;21.340000;28.965820
77517;BME280;66628;53.946;27.634;2023-02-16T04:37:14;99525.343750;;;21.340000;28.899414
77517;BME280;66628;53.946;27.634;2023-02-16T04:38:14;99522.437500;;;21.340000;28.875977
77517;BME280;66628;53.946;27.634;2023-02-16T04:39:14;99522.937500;;;21.340000;28.955078
77517;BME280;66628;53.946;27.634;2023-02-16T04:40:15;99520.015625;;;21.350000;28.989258
77517;BME280;66628;53.946;27.634;2023-02-16T04:41:14;99517.484375;;;21.350000;28.966797
77517;BME280;66628;53.946;27.634;2023-02-16T04:42:14;99517.671875;;;21.350000;28.966797
77517;BME280;66628;53.946;27.634;2023-02-16T04:43:14;99518.796875;;;21.360001;29.011719
77517;BME280;66628;53.946;27.634;2023-02-16T04:44:14;99515.734375;;;21.350000;28.978516
77517;BME280;66628;53.946;27.634;2023-02-16T04:45:14;99519.437500;;;21.350000;29.023438
77517;BME280;66628;53.946;27.634;2023-02-16T04:46:14;99517.265625;;;21.350000;29.034180
77517;BME280;66628;53.946;27.634;2023-02-16T04:47:14;99518.312500;;;21.360001;29.068359
77517;BME280;66628;53.946;27.634;2023-02-16T04:48:14;99519.250000;;;21.360001;29.046875
77517;BME280;66628;53.946;27.634;2023-02-16T04:49:14;99517.265625;;;21.360001;29.011719
77517;BME280;66628;53.946;27.634;2023-02-16T04:50:14;99516.390625;;;21.360001;29.090820
77517;BME280;66628;53.946;27.634;2023-02-16T04:51:14;99516.218750;;;21.360001;29.023438
77517;BME280;66628;53.946;27.634;2023-02-16T04:52:14;99514.562500;;;21.360001;29.091797
77517;BME280;66628;53.946;27.634;2023-02-16T04:53:14;99517.828125;;;21.370001;29.024414
77517;BME280;66628;53.946;27.634;2023-02-16T04:54:14;99517.421875;;;21.379999;29.024414
77517;BME280;66628;53.946;27.634;2023-02-16T04:55:14;99518.945312;;;21.360001;29.293945
77517;BME280;66628;53.946;27.634;2023-02-16T04:56:14;99519.921875;;;21.370001;29.238281
77517;BME280;66628;53.946;27.634;2023-02-16T04:57:14;99520.109375;;;21.379999;29.181641
77517;BME280;66628;53.946;27.634;2023-02-16T04:58:15;99521.203125;;;21.379999;29.205078
77517;BME280;66628;53.946;27.634;2023-02-16T04:59:14;99520.562500;;;21.379999;29.193359
77517;BME280;66628;53.946;27.634;2023-02-16T05:00:14;99521.187500;;;21.389999;29.250977
77517;BME280;66628;53.946;27.634;2023-02-16T05:01:19;99521.664062;;;21.389999;29.170898
77517;BME280;66628;53.946;27.634;2023-02-16T05:02:14;99519.085938;;;21.389999;29.138672
77517;BME280;66628;53.946;27.634;2023-02-16T05:03:14;99518.625000;;;21.379999;29.137695
77517;BME280;66628;53.946;27.634;2023-02-16T05:04:14;99518.031250;;;21.389999;29.116211
77517;BME280;66628;53.946;27.634;2023-02-16T05:05:14;99517.265625;;;21.389999;29.150391
77517;BME280;66628;53.946;27.634;2023-02-16T05:06:14;99517.437500;;;21.389999;29.183594
77517;BME280;66628;53.946;27.634;2023-02-16T05:07:14;99515.703125;;;21.400000;29.127930
77517;BME280;66628;53.946;27.634;2023-02-16T05:08:14;99516.734375;;;21.389999;29.127930